Terminal Aerodrome Forecast
Issued by NWS Sioux Falls, SD

Home | Current Version | Previous Version | Text Only | Print | Product List | Glossary Off
Versions: 1 2 3 4 5 6 7 8 9 10 11 12 13 14 15 16 17 18 19 20

000
FTUS43 KFSD 142134 AAA
TAFFSD
TAF AMD
KFSD 142134Z 1422/1518 03006KT P6SM SCT030 SCT090
      TEMPO 1422/1423 BKN030
     FM150400 06005KT P6SM BKN250
     FM151100 10005KT P6SM BKN030
     FM151400 11005KT P6SM BKN015
     FM151600 11006KT P6SM BKN035=

USA.gov is the U.S. government's official web portal to all federal, state and local government web resources and services.